createdAt,value
2023-04-26T00:00:52.576Z,0.21
2023-04-26T00:01:52.637Z,0.39
2023-04-26T00:02:52.708Z,0.62
2023-04-26T00:03:52.965Z,0.36
2023-04-26T00:04:52.798Z,0.33
2023-04-26T00:05:52.869Z,0.43
2023-04-26T00:06:52.820Z,0.59
2023-04-26T00:07:52.869Z,0.53
2023-04-26T00:08:53.135Z,0.53
2023-04-26T00:09:52.934Z,1.95
2023-04-26T00:10:52.974Z,0.56
2023-04-26T00:11:53.024Z,0.52
2023-04-26T00:12:53.046Z,0.38
2023-04-26T00:13:53.080Z,0.56
2023-04-26T00:14:53.136Z,0.57
2023-04-26T00:15:53.293Z,0.28
2023-04-26T00:16:53.279Z,0.32
2023-04-26T00:17:53.325Z,0.37
2023-04-26T00:18:53.521Z,0.45
2023-04-26T00:19:53.347Z,0.53
2023-04-26T00:20:53.357Z,0.37
2023-04-26T00:21:53.451Z,0.88
2023-04-26T00:22:53.443Z,0.49
2023-04-26T00:23:53.603Z,0.48
2023-04-26T00:24:53.568Z,0.44
2023-04-26T00:25:54.108Z,0.39
2023-04-26T00:26:53.638Z,0.40
2023-04-26T00:27:53.651Z,0.34
2023-04-26T00:28:53.938Z,0.43
2023-04-26T00:29:53.738Z,0.39
2023-04-26T00:30:53.758Z,0.31
2023-04-26T00:31:53.846Z,0.44
2023-04-26T00:32:53.914Z,0.67
2023-04-26T00:33:53.900Z,0.39
2023-04-26T00:34:53.939Z,0.58
2023-04-26T00:35:54.004Z,0.49
2023-04-26T00:36:53.998Z,0.65
2023-04-26T00:37:54.056Z,0.35
2023-04-26T00:38:54.180Z,0.39
2023-04-26T00:39:54.155Z,0.47
2023-04-26T00:40:54.160Z,0.56
2023-04-26T00:41:54.246Z,0.51
2023-04-26T00:42:54.241Z,0.60
2023-04-26T00:43:54.297Z,0.54
2023-04-26T00:44:54.347Z,0.35
2023-04-26T00:45:54.395Z,0.71
2023-04-26T00:46:54.413Z,0.45
2023-04-26T00:47:54.471Z,0.37
2023-04-26T00:48:54.616Z,0.50
2023-04-26T00:49:54.516Z,0.63
2023-04-26T00:50:54.538Z,0.63
2023-04-26T00:51:54.597Z,0.46
2023-04-26T00:52:54.619Z,0.38
2023-04-26T00:53:54.688Z,0.46
2023-04-26T00:54:54.716Z,0.49
2023-04-26T00:55:54.846Z,0.49
2023-04-26T00:56:54.810Z,0.69
2023-04-26T00:57:54.831Z,0.45
2023-04-26T00:58:55.166Z,0.55
2023-04-26T00:59:54.917Z,0.51
2023-04-26T01:00:55.031Z,0.57
2023-04-26T01:01:55.004Z,0.55
2023-04-26T01:02:55.193Z,0.55
2023-04-26T01:03:55.199Z,0.34
2023-04-26T01:04:55.168Z,0.51
2023-04-26T01:05:55.172Z,0.71
2023-04-26T01:06:55.212Z,0.43
2023-04-26T01:07:55.292Z,0.53
2023-04-26T01:08:55.312Z,0.50
2023-04-26T01:09:55.360Z,0.30
2023-04-26T01:10:55.410Z,0.55
2023-04-26T01:11:55.453Z,0.44
2023-04-26T01:12:55.482Z,0.34
2023-04-26T01:13:55.504Z,0.73
2023-04-26T01:14:55.565Z,0.33
2023-04-26T01:15:55.592Z,0.46
2023-04-26T01:16:55.697Z,0.40
2023-04-26T01:17:55.777Z,0.59
2023-04-26T01:18:55.742Z,1.10
2023-04-26T01:19:55.779Z,0.46
2023-04-26T01:20:55.823Z,0.48
2023-04-26T01:21:55.853Z,0.54
2023-04-26T01:22:55.910Z,0.49
2023-04-26T01:23:55.946Z,0.48
2023-04-26T01:24:55.984Z,0.32
2023-04-26T01:25:55.998Z,0.64
2023-04-26T01:26:56.138Z,0.50
2023-04-26T01:27:56.111Z,1.41
2023-04-26T01:28:56.142Z,0.36
2023-04-26T01:29:56.231Z,0.49
2023-04-26T01:30:56.289Z,0.38
2023-04-26T01:31:56.275Z,0.40
2023-04-26T01:32:56.368Z,0.51
2023-04-26T01:33:56.328Z,0.46
2023-04-26T01:34:56.424Z,0.37
2023-04-26T01:35:56.450Z,0.49
2023-04-26T01:36:56.472Z,0.48
2023-04-26T01:37:56.525Z,0.51
2023-04-26T01:38:56.600Z,0.39
2023-04-26T01:39:56.619Z,0.42
2023-04-26T01:40:56.635Z,0.53
2023-04-26T01:41:56.687Z,0.43
2023-04-26T01:42:56.829Z,0.72
2023-04-26T01:43:56.793Z,0.37
2023-04-26T01:44:56.855Z,0.42
2023-04-26T01:45:56.915Z,0.35
2023-04-26T01:46:56.913Z,0.52
2023-04-26T01:47:57.010Z,0.55
2023-04-26T01:48:57.022Z,0.32
2023-04-26T01:49:57.047Z,0.28
2023-04-26T01:50:57.129Z,0.39
2023-04-26T01:51:57.173Z,0.30
2023-04-26T01:52:57.205Z,0.34
2023-04-26T01:53:57.244Z,0.55
2023-04-26T01:54:57.289Z,0.30
2023-04-26T01:55:57.355Z,0.48
2023-04-26T01:56:57.395Z,0.41
2023-04-26T01:57:57.417Z,0.42
2023-04-26T01:58:57.532Z,0.67
2023-04-26T01:59:57.521Z,0.39
2023-04-26T02:00:57.580Z,0.48
2023-04-26T02:01:57.728Z,0.35
2023-04-26T02:02:57.727Z,0.50
2023-04-26T02:03:57.738Z,0.25
2023-04-26T02:04:57.812Z,0.50
2023-04-26T02:05:57.839Z,0.48
2023-04-26T02:06:57.872Z,0.28
2023-04-26T02:07:57.938Z,0.44
2023-04-26T02:08:57.973Z,0.57
2023-04-26T02:09:58.029Z,0.56
2023-04-26T02:10:58.097Z,0.53
2023-04-26T02:11:58.144Z,0.33
2023-04-26T02:12:58.175Z,0.39
2023-04-26T02:13:58.274Z,0.51
2023-04-26T02:14:58.288Z,0.50
2023-04-26T02:15:58.407Z,0.43
2023-04-26T02:16:58.372Z,0.45
2023-04-26T02:17:58.531Z,0.52
2023-04-26T02:18:58.507Z,0.47
2023-04-26T02:19:58.543Z,0.36
2023-04-26T02:20:58.619Z,0.75
2023-04-26T02:21:58.637Z,0.34
2023-04-26T02:22:58.691Z,0.31
2023-04-26T02:23:58.780Z,0.40
2023-04-26T02:24:58.818Z,0.78
2023-04-26T02:25:58.854Z,0.45
2023-04-26T02:26:58.892Z,0.42
2023-04-26T02:27:58.962Z,0.38
2023-04-26T02:28:59.005Z,0.46
2023-04-26T02:29:59.062Z,0.50
2023-04-26T02:30:59.100Z,0.36
2023-04-26T02:31:59.184Z,0.49
2023-04-26T02:32:59.268Z,0.52
2023-04-26T02:33:59.268Z,0.44
2023-04-26T02:34:59.285Z,0.33
2023-04-26T02:35:59.380Z,0.40
2023-04-26T02:36:59.422Z,0.69
2023-04-26T02:37:59.441Z,0.39
2023-04-26T02:38:59.520Z,0.48
2023-04-26T02:39:59.578Z,0.42
2023-04-26T02:40:59.611Z,0.41
2023-04-26T02:41:59.711Z,0.52
2023-04-26T02:42:59.732Z,0.35
2023-04-26T02:43:59.773Z,0.50
2023-04-26T02:44:59.829Z,0.63
2023-04-26T02:45:59.898Z,0.36
2023-04-26T02:46:59.987Z,0.37
2023-04-26T02:47:59.990Z,0.37
2023-04-26T02:49:00.005Z,0.56
2023-04-26T02:50:00.115Z,0.55
2023-04-26T02:51:00.164Z,0.37
2023-04-26T02:52:00.190Z,0.32
2023-04-26T02:53:00.227Z,0.32
2023-04-26T02:54:00.282Z,0.21
2023-04-26T02:55:00.340Z,0.29
2023-04-26T02:56:00.383Z,0.42
2023-04-26T02:57:00.431Z,0.52
2023-04-26T02:58:00.516Z,0.35
2023-04-26T02:59:00.536Z,0.43
2023-04-26T03:00:00.601Z,0.31
2023-04-26T03:01:01.625Z,0.45
2023-04-26T03:02:00.762Z,0.51
2023-04-26T03:03:00.905Z,0.27
2023-04-26T03:04:00.971Z,1.08
2023-04-26T03:05:00.854Z,0.50
2023-04-26T03:06:00.919Z,0.47
2023-04-26T03:07:00.955Z,0.53
2023-04-26T03:08:00.991Z,0.30
2023-04-26T03:09:01.077Z,0.44
2023-04-26T03:10:01.145Z,0.47
2023-04-26T03:11:01.165Z,0.43
2023-04-26T03:12:01.246Z,0.30
2023-04-26T03:13:01.256Z,0.44
2023-04-26T03:14:01.305Z,0.24
2023-04-26T03:15:01.336Z,0.33
2023-04-26T03:16:01.440Z,0.58
2023-04-26T03:17:01.614Z,0.41
2023-04-26T03:18:01.493Z,0.32
2023-04-26T03:19:01.544Z,0.35
2023-04-26T03:20:02.856Z,0.28
2023-04-26T03:21:01.648Z,0.47
2023-04-26T03:22:01.705Z,0.48
2023-04-26T03:23:01.758Z,0.47
2023-04-26T03:24:01.801Z,0.45
2023-04-26T03:25:01.834Z,0.65
2023-04-26T03:26:01.919Z,0.18
2023-04-26T03:27:01.973Z,0.56
2023-04-26T03:28:02.028Z,0.36
2023-04-26T03:29:02.081Z,0.33
2023-04-26T03:30:02.108Z,0.43
2023-04-26T03:31:02.169Z,0.27
2023-04-26T03:32:02.257Z,0.51
2023-04-26T03:33:02.255Z,0.49
2023-04-26T03:34:02.313Z,0.55
2023-04-26T03:35:02.432Z,0.32
2023-04-26T03:36:02.437Z,0.34
2023-04-26T03:37:02.468Z,0.75
2023-04-26T03:38:02.536Z,0.30
2023-04-26T03:39:02.581Z,0.42
2023-04-26T03:40:02.682Z,0.38
2023-04-26T03:41:02.717Z,0.40
2023-04-26T03:42:02.769Z,0.36
2023-04-26T03:43:02.822Z,0.32
2023-04-26T03:44:02.870Z,0.58
2023-04-26T03:45:02.921Z,0.40
2023-04-26T03:46:02.984Z,0.57
2023-04-26T03:47:03.037Z,0.43
2023-04-26T03:48:03.139Z,0.55
2023-04-26T03:49:03.146Z,0.51
2023-04-26T03:50:03.201Z,0.58
2023-04-26T03:51:03.275Z,0.48
2023-04-26T03:52:03.316Z,0.42
2023-04-26T03:53:03.393Z,0.44
2023-04-26T03:54:03.416Z,0.51
2023-04-26T03:55:03.479Z,0.39
2023-04-26T03:56:03.557Z,0.25
2023-04-26T03:57:03.595Z,0.55
2023-04-26T03:58:03.657Z,0.40
2023-04-26T03:59:03.712Z,0.40
2023-04-26T04:00:03.763Z,0.44
2023-04-26T04:01:03.839Z,0.54
2023-04-26T04:02:04.027Z,0.26
2023-04-26T04:03:04.020Z,0.36
2023-04-26T04:04:04.126Z,0.45
2023-04-26T04:05:04.102Z,0.40
2023-04-26T04:06:04.110Z,0.46
2023-04-26T04:07:04.178Z,0.35
2023-04-26T04:08:04.220Z,0.35
2023-04-26T04:09:04.283Z,0.35
2023-04-26T04:10:04.316Z,0.53
2023-04-26T04:11:04.394Z,0.57
2023-04-26T04:12:04.441Z,0.37
2023-04-26T04:13:04.494Z,0.38
2023-04-26T04:14:04.541Z,0.43
2023-04-26T04:15:04.589Z,0.36
2023-04-26T04:16:04.690Z,0.30
2023-04-26T04:17:04.694Z,0.49
2023-04-26T04:18:04.751Z,0.43
2023-04-26T04:19:04.805Z,0.34
2023-04-26T04:20:04.879Z,0.40
2023-04-26T04:21:04.924Z,0.36
2023-04-26T04:22:04.946Z,0.50
2023-04-26T04:23:05.023Z,0.46
2023-04-26T04:24:05.041Z,0.43
2023-04-26T04:25:05.100Z,0.12
2023-04-26T04:26:05.192Z,0.27
2023-04-26T04:27:05.235Z,0.59
2023-04-26T04:28:05.260Z,0.38
2023-04-26T04:29:05.317Z,0.29
2023-04-26T04:30:05.344Z,0.47
2023-04-26T04:31:05.406Z,0.27
2023-04-26T04:32:05.477Z,0.29
2023-04-26T04:33:05.731Z,0.35
2023-04-26T04:34:05.561Z,0.37
2023-04-26T04:35:05.656Z,0.41
2023-04-26T04:36:05.682Z,0.42
2023-04-26T04:37:05.751Z,0.28
2023-04-26T04:38:05.817Z,0.38
2023-04-26T04:39:05.853Z,0.40
2023-04-26T04:40:05.894Z,0.32
2023-04-26T04:41:05.928Z,0.41
2023-04-26T04:42:06.001Z,0.20
2023-04-26T04:43:06.063Z,0.26
2023-04-26T04:44:06.090Z,0.40
2023-04-26T04:45:06.161Z,0.54
2023-04-26T04:46:06.246Z,0.40
2023-04-26T04:47:06.309Z,0.18
2023-04-26T04:48:06.410Z,0.50
2023-04-26T04:49:06.382Z,0.35
2023-04-26T04:50:06.461Z,0.43
2023-04-26T04:51:06.516Z,0.48
2023-04-26T04:52:06.568Z,0.40
2023-04-26T04:53:06.629Z,0.61
2023-04-26T04:54:06.710Z,0.37
2023-04-26T04:55:06.703Z,0.52
2023-04-26T04:56:06.762Z,0.41
2023-04-26T04:57:06.808Z,0.29
2023-04-26T04:58:06.877Z,0.44
2023-04-26T04:59:06.944Z,0.51
2023-04-26T05:00:06.985Z,0.41
2023-04-26T05:01:07.082Z,0.41
2023-04-26T05:02:07.232Z,0.38
2023-04-26T05:03:07.249Z,0.24
2023-04-26T05:04:07.441Z,0.29
2023-04-26T05:05:07.425Z,0.29
2023-04-26T05:06:07.326Z,0.29
2023-04-26T05:07:07.360Z,0.23
2023-04-26T05:08:07.456Z,0.28
2023-04-26T05:09:07.486Z,0.40
2023-04-26T05:10:07.571Z,0.29
2023-04-26T05:11:07.617Z,0.45
2023-04-26T05:12:07.679Z,0.33
2023-04-26T05:13:07.701Z,0.33
2023-04-26T05:14:07.776Z,0.14
2023-04-26T05:15:07.843Z,0.61
2023-04-26T05:16:07.873Z,0.40
2023-04-26T05:17:07.937Z,0.29
2023-04-26T05:18:07.989Z,0.40
2023-04-26T05:19:09.573Z,0.40
2023-04-26T05:20:08.086Z,0.60
2023-04-26T05:21:08.144Z,0.34
2023-04-26T05:22:08.208Z,0.29
2023-04-26T05:23:08.263Z,0.17
2023-04-26T05:24:08.305Z,0.25
2023-04-26T05:25:08.392Z,0.48
2023-04-26T05:26:08.393Z,0.40
2023-04-26T05:27:08.450Z,0.16
2023-04-26T05:28:08.508Z,0.30
2023-04-26T05:29:08.573Z,0.31
2023-04-26T05:30:08.611Z,0.27
2023-04-26T05:31:10.732Z,0.40
2023-04-26T05:32:08.877Z,0.28
2023-04-26T05:33:08.705Z,0.32
2023-04-26T05:34:08.683Z,0.18
2023-04-26T05:35:08.651Z,0.32
2023-04-26T05:36:08.638Z,0.22
2023-04-26T05:37:08.695Z,0.28
2023-04-26T05:38:08.624Z,0.24
2023-04-26T05:39:08.623Z,0.51
2023-04-26T05:40:08.636Z,0.41
2023-04-26T05:41:08.585Z,0.50
2023-04-26T05:42:08.595Z,0.56
2023-04-26T05:43:08.586Z,0.53
2023-04-26T05:44:08.588Z,0.44
2023-04-26T05:45:08.545Z,0.71
2023-04-26T05:46:08.615Z,0.63
2023-04-26T05:47:08.576Z,1.02
2023-04-26T05:48:08.636Z,1.17
2023-04-26T05:49:08.571Z,0.67
2023-04-26T05:50:08.754Z,1.25
2023-04-26T05:51:08.522Z,0.80
2023-04-26T05:52:08.527Z,0.67
2023-04-26T05:53:08.551Z,0.69
2023-04-26T05:54:08.497Z,1.48
2023-04-26T05:55:08.773Z,1.30
2023-04-26T05:56:08.537Z,1.09
2023-04-26T05:57:08.535Z,1.48
2023-04-26T05:58:08.478Z,1.18
2023-04-26T05:59:08.473Z,2.08
2023-04-26T06:00:08.479Z,2.21
2023-04-26T06:01:08.448Z,2.04
2023-04-26T06:02:08.468Z,1.84
2023-04-26T06:03:08.631Z,1.81
2023-04-26T06:04:08.942Z,2.22
2023-04-26T06:05:08.709Z,2.16
2023-04-26T06:06:08.453Z,2.53
2023-04-26T06:07:08.426Z,3.54
2023-04-26T06:08:08.403Z,2.69
2023-04-26T06:09:08.412Z,3.01
2023-04-26T06:10:08.412Z,4.72
2023-04-26T06:11:08.411Z,1.98
2023-04-26T06:12:08.394Z,2.44
2023-04-26T06:13:08.385Z,2.54
2023-04-26T06:14:14.286Z,1.76
2023-04-26T06:15:09.392Z,2.39
2023-04-26T06:16:08.379Z,2.33
2023-04-26T06:17:08.402Z,2.06
2023-04-26T06:18:08.393Z,2.92
2023-04-26T06:19:08.335Z,2.13
2023-04-26T06:20:08.343Z,2.91
2023-04-26T06:21:08.359Z,2.33
2023-04-26T06:22:08.342Z,2.19
2023-04-26T06:23:08.346Z,4.31
2023-04-26T06:24:08.309Z,4.61
2023-04-26T06:25:08.319Z,4.17
2023-04-26T06:26:08.308Z,4.09
2023-04-26T06:27:08.300Z,3.36
2023-04-26T06:28:08.301Z,3.68
2023-04-26T06:29:08.323Z,3.23
2023-04-26T06:30:08.266Z,3.15
2023-04-26T06:31:08.300Z,3.10
2023-04-26T06:32:08.282Z,2.75
2023-04-26T06:33:08.296Z,3.23
2023-04-26T06:34:08.583Z,2.79
2023-04-26T06:35:08.519Z,2.50
2023-04-26T06:36:08.392Z,2.27
2023-04-26T06:37:08.452Z,2.49
2023-04-26T06:38:08.496Z,2.12
2023-04-26T06:39:08.519Z,2.25
2023-04-26T06:40:08.632Z,2.30
2023-04-26T06:41:08.573Z,1.72
2023-04-26T06:42:08.599Z,2.23
2023-04-26T06:43:08.604Z,2.32
2023-04-26T06:44:08.632Z,1.59
2023-04-26T06:45:08.683Z,1.54
2023-04-26T06:46:08.765Z,2.24
2023-04-26T06:47:08.781Z,2.09
2023-04-26T06:48:08.887Z,2.11
2023-04-26T06:49:08.875Z,2.02
2023-04-26T06:50:09.279Z,1.86
2023-04-26T06:51:08.984Z,1.98
2023-04-26T06:52:09.665Z,2.12
2023-04-26T06:53:09.011Z,1.85
2023-04-26T06:54:09.143Z,2.59
2023-04-26T06:55:09.084Z,5.90
2023-04-26T06:56:09.129Z,4.87
2023-04-26T06:57:09.208Z,4.34
2023-04-26T06:58:09.237Z,3.66
2023-04-26T06:59:09.250Z,3.59
2023-04-26T07:00:09.312Z,3.79
2023-04-26T07:01:09.319Z,3.96
2023-04-26T07:02:09.362Z,4.04
2023-04-26T07:03:09.418Z,3.14
2023-04-26T07:04:09.411Z,3.80
2023-04-26T07:05:09.423Z,3.37
2023-04-26T07:06:09.397Z,3.29
2023-04-26T07:07:10.522Z,3.11
2023-04-26T07:08:09.426Z,2.82
2023-04-26T07:09:09.406Z,2.65
2023-04-26T07:10:09.409Z,2.84
2023-04-26T07:11:09.524Z,2.50
2023-04-26T07:12:09.383Z,2.60
2023-04-26T07:13:09.736Z,2.16
2023-04-26T07:14:09.375Z,2.51
2023-04-26T07:15:09.365Z,2.78
2023-04-26T07:16:09.386Z,2.49
2023-04-26T07:17:09.465Z,2.25
2023-04-26T07:18:09.452Z,2.74
2023-04-26T07:19:09.331Z,2.58
2023-04-26T07:20:09.319Z,2.30
2023-04-26T07:21:09.355Z,2.77
2023-04-26T07:22:09.330Z,3.35
2023-04-26T07:23:09.305Z,2.35
2023-04-26T07:24:09.316Z,2.56
2023-04-26T07:25:09.289Z,2.37
2023-04-26T07:26:09.311Z,2.20
2023-04-26T07:27:09.271Z,2.03
2023-04-26T07:28:09.259Z,3.12
2023-04-26T07:29:09.264Z,2.70
2023-04-26T07:30:09.291Z,2.25
2023-04-26T07:31:10.874Z,3.51
2023-04-26T07:32:09.272Z,3.53
2023-04-26T07:33:09.327Z,2.75
2023-04-26T07:34:09.256Z,2.82
2023-04-26T07:35:09.223Z,3.23
2023-04-26T07:36:09.264Z,2.20
2023-04-26T07:37:09.224Z,2.26
2023-04-26T07:38:09.253Z,2.81
2023-04-26T07:39:09.226Z,2.02
2023-04-26T07:40:09.303Z,3.12
2023-04-26T07:41:09.211Z,2.89
2023-04-26T07:42:09.217Z,3.15
2023-04-26T07:43:09.176Z,3.12
2023-04-26T07:44:09.151Z,3.61
2023-04-26T07:45:09.359Z,3.12
2023-04-26T07:46:09.221Z,2.98
2023-04-26T07:47:09.130Z,2.67
2023-04-26T07:48:09.189Z,4.49
2023-04-26T07:49:09.132Z,3.28
2023-04-26T07:50:09.141Z,3.22
2023-04-26T07:51:09.160Z,3.48
2023-04-26T07:52:09.140Z,2.76
2023-04-26T07:53:09.120Z,3.24
2023-04-26T07:54:09.091Z,2.84
2023-04-26T07:55:09.098Z,2.67
2023-04-26T07:56:09.109Z,2.48
2023-04-26T07:57:09.126Z,2.15
2023-04-26T07:58:09.164Z,2.23
2023-04-26T07:59:09.171Z,2.09
2023-04-26T08:00:09.205Z,2.05
2023-04-26T08:01:09.238Z,2.07
2023-04-26T08:02:09.227Z,1.69
2023-04-26T08:03:09.415Z,1.91
2023-04-26T08:04:09.356Z,1.74
2023-04-26T08:05:09.528Z,1.87
2023-04-26T08:06:09.381Z,1.64
2023-04-26T08:07:09.373Z,1.79
2023-04-26T08:08:09.441Z,2.20
2023-04-26T08:09:09.518Z,1.43
2023-04-26T08:10:09.550Z,1.51
2023-04-26T08:11:09.601Z,1.80
2023-04-26T08:12:10.369Z,1.95
2023-04-26T08:13:09.672Z,1.94
2023-04-26T08:14:09.713Z,1.40
2023-04-26T08:15:09.737Z,1.85
2023-04-26T08:16:09.759Z,1.67
2023-04-26T08:17:09.800Z,1.91
2023-04-26T08:18:09.858Z,2.25
2023-04-26T08:19:09.857Z,1.67
2023-04-26T08:20:09.961Z,1.18
2023-04-26T08:21:09.894Z,1.38
2023-04-26T08:22:09.920Z,1.54
2023-04-26T08:23:09.919Z,1.21
2023-04-26T08:24:09.927Z,1.15
2023-04-26T08:25:09.955Z,1.51
2023-04-26T08:26:09.992Z,1.55
2023-04-26T08:27:10.017Z,2.22
2023-04-26T08:28:09.989Z,1.57
2023-04-26T08:29:10.060Z,1.27
2023-04-26T08:30:10.040Z,2.81
2023-04-26T08:31:10.152Z,1.67
2023-04-26T08:32:10.035Z,1.73
2023-04-26T08:33:10.156Z,1.88
2023-04-26T08:34:10.060Z,1.53
2023-04-26T08:35:10.332Z,1.72
2023-04-26T08:36:10.068Z,1.67
2023-04-26T08:37:10.054Z,2.13
2023-04-26T08:38:10.047Z,2.14
2023-04-26T08:39:10.037Z,2.96
2023-04-26T08:40:10.341Z,1.60
2023-04-26T08:41:10.102Z,2.36
2023-04-26T08:42:10.081Z,2.83
2023-04-26T08:43:10.145Z,2.44
2023-04-26T08:44:10.226Z,2.15
2023-04-26T08:45:10.311Z,2.38
2023-04-26T08:46:10.302Z,2.56
2023-04-26T08:47:10.334Z,2.71
2023-04-26T08:48:10.415Z,2.98
2023-04-26T08:49:10.577Z,3.95
2023-04-26T08:50:10.896Z,3.84
2023-04-26T08:51:10.527Z,4.04
2023-04-26T08:52:10.597Z,4.84
2023-04-26T08:53:10.576Z,3.69
2023-04-26T08:54:10.610Z,2.83
2023-04-26T08:55:10.644Z,3.53
2023-04-26T08:56:10.860Z,2.32
2023-04-26T08:57:10.684Z,3.10
2023-04-26T08:58:11.350Z,2.81
2023-04-26T08:59:10.808Z,3.04
2023-04-26T09:00:10.829Z,2.55
2023-04-26T09:01:10.891Z,2.65
2023-04-26T09:02:10.855Z,2.22
2023-04-26T09:03:11.003Z,2.56
2023-04-26T09:04:11.150Z,2.04
2023-04-26T09:05:11.380Z,2.45
2023-04-26T09:06:11.356Z,2.34
2023-04-26T09:07:10.970Z,2.06
2023-04-26T09:08:11.022Z,1.77
2023-04-26T09:09:11.047Z,1.77
2023-04-26T09:10:11.076Z,1.50
2023-04-26T09:11:11.109Z,1.90
2023-04-26T09:12:11.174Z,2.05
2023-04-26T09:13:11.209Z,1.56
2023-04-26T09:14:11.273Z,1.69
2023-04-26T09:15:11.280Z,1.87
2023-04-26T09:16:11.313Z,2.04
2023-04-26T09:17:11.374Z,1.79
2023-04-26T09:18:11.372Z,1.74
2023-04-26T09:19:11.426Z,2.06
2023-04-26T09:20:11.501Z,2.00
2023-04-26T09:21:11.506Z,1.84
2023-04-26T09:22:11.542Z,1.49
2023-04-26T09:23:11.632Z,1.90
2023-04-26T09:24:11.692Z,1.52
2023-04-26T09:25:11.810Z,1.64
2023-04-26T09:26:11.803Z,1.78
2023-04-26T09:27:11.864Z,1.64
2023-04-26T09:28:11.928Z,1.83
2023-04-26T09:29:11.966Z,1.65
2023-04-26T09:30:11.996Z,1.67
2023-04-26T09:31:12.046Z,1.59
2023-04-26T09:32:12.096Z,1.78
2023-04-26T09:33:12.168Z,1.88
2023-04-26T09:34:12.190Z,1.78
2023-04-26T09:35:12.253Z,1.73
2023-04-26T09:36:12.301Z,1.10
2023-04-26T09:37:12.300Z,2.13
2023-04-26T09:38:13.589Z,1.82
2023-04-26T09:39:12.367Z,1.68
2023-04-26T09:40:12.448Z,1.38
2023-04-26T09:41:12.842Z,1.53
2023-04-26T09:42:12.550Z,1.69
2023-04-26T09:43:12.602Z,1.53
2023-04-26T09:44:12.639Z,6.26
2023-04-26T09:45:12.641Z,2.15
2023-04-26T09:46:12.886Z,2.11
2023-04-26T09:47:12.795Z,2.45
2023-04-26T09:48:12.717Z,2.26
2023-04-26T09:49:12.711Z,1.51
2023-04-26T09:50:12.720Z,2.27
2023-04-26T09:51:12.726Z,2.30
2023-04-26T09:52:12.703Z,2.00
2023-04-26T09:53:12.734Z,2.28
2023-04-26T09:54:12.735Z,2.18
2023-04-26T09:55:25.351Z,1.90
2023-04-26T09:56:13.759Z,1.92
2023-04-26T09:57:12.733Z,1.87
2023-04-26T09:58:12.713Z,2.06
2023-04-26T09:59:12.723Z,2.09
2023-04-26T10:00:12.713Z,1.89
2023-04-26T10:01:12.726Z,1.88
2023-04-26T10:02:12.703Z,1.55
2023-04-26T10:03:12.818Z,1.58
2023-04-26T10:04:12.810Z,1.83
2023-04-26T10:05:12.746Z,2.02
2023-04-26T10:06:12.804Z,1.96
2023-04-26T10:07:12.863Z,2.32
2023-04-26T10:08:12.922Z,1.87
2023-04-26T10:09:12.994Z,2.49
2023-04-26T10:10:13.027Z,1.84
2023-04-26T10:11:13.210Z,2.08
2023-04-26T10:12:13.168Z,1.99
2023-04-26T10:13:13.214Z,2.08
2023-04-26T10:14:13.241Z,1.43
2023-04-26T10:15:13.323Z,1.59
2023-04-26T10:16:13.441Z,1.67
2023-04-26T10:17:13.430Z,1.87
2023-04-26T10:18:13.528Z,1.69
2023-04-26T10:19:13.558Z,1.29
2023-04-26T10:20:13.608Z,1.57
2023-04-26T10:21:13.680Z,1.35
2023-04-26T10:22:13.721Z,1.88
2023-04-26T10:23:15.474Z,1.73
2023-04-26T10:24:13.769Z,1.70
2023-04-26T10:25:13.753Z,1.66
2023-04-26T10:26:13.773Z,1.93
2023-04-26T10:27:13.755Z,1.75
2023-04-26T10:28:13.750Z,1.86
2023-04-26T10:29:13.727Z,1.42
2023-04-26T10:30:13.710Z,1.91
2023-04-26T10:31:13.716Z,1.79
2023-04-26T10:32:13.730Z,1.73
2023-04-26T10:33:13.802Z,1.72
2023-04-26T10:34:13.699Z,1.56
2023-04-26T10:35:13.715Z,1.45
2023-04-26T10:36:13.937Z,1.83
2023-04-26T10:37:13.668Z,1.73
2023-04-26T10:38:13.662Z,1.60
2023-04-26T10:39:13.661Z,1.65
2023-04-26T10:40:13.651Z,1.77
2023-04-26T10:41:13.643Z,1.45
2023-04-26T10:42:13.706Z,1.47
2023-04-26T10:43:13.816Z,1.97
2023-04-26T10:44:13.636Z,1.53
2023-04-26T10:45:13.611Z,1.28
2023-04-26T10:46:14.487Z,1.59
2023-04-26T10:47:13.619Z,1.49
2023-04-26T10:48:13.628Z,1.72
2023-04-26T10:49:13.587Z,1.57
2023-04-26T10:50:13.596Z,1.54
2023-04-26T10:51:13.564Z,1.73
2023-04-26T10:52:13.562Z,1.63
2023-04-26T10:53:13.553Z,1.69
2023-04-26T10:54:13.536Z,1.58
2023-04-26T10:55:13.573Z,1.35
2023-04-26T10:56:13.577Z,1.85
2023-04-26T10:57:13.570Z,1.19
2023-04-26T10:58:13.518Z,1.32
2023-04-26T10:59:33.214Z,1.44
2023-04-26T11:00:14.609Z,1.80
2023-04-26T11:01:13.622Z,1.38
2023-04-26T11:02:13.562Z,1.78
2023-04-26T11:03:13.671Z,1.64
2023-04-26T11:04:13.621Z,1.32
2023-04-26T11:05:13.538Z,1.69
2023-04-26T11:06:13.528Z,1.53
2023-04-26T11:07:13.495Z,1.44
2023-04-26T11:08:13.501Z,1.25
2023-04-26T11:09:13.478Z,1.61
2023-04-26T11:10:13.493Z,1.32
2023-04-26T11:11:13.508Z,1.58
2023-04-26T11:12:13.487Z,1.63
2023-04-26T11:13:13.511Z,1.43
2023-04-26T11:14:13.571Z,1.61
2023-04-26T11:15:13.562Z,1.61
2023-04-26T11:16:13.685Z,1.45
2023-04-26T11:17:13.614Z,1.65
2023-04-26T11:18:13.635Z,1.33
2023-04-26T11:19:13.694Z,1.81
2023-04-26T11:20:13.715Z,1.80
2023-04-26T11:21:13.689Z,1.28
2023-04-26T11:22:13.685Z,1.80
2023-04-26T11:23:13.697Z,1.32
2023-04-26T11:24:13.675Z,1.52
2023-04-26T11:25:13.684Z,1.40
2023-04-26T11:26:13.915Z,1.48
2023-04-26T11:27:13.646Z,1.51
2023-04-26T11:28:13.661Z,1.31
2023-04-26T11:29:13.665Z,1.07
2023-04-26T11:30:13.660Z,2.35
2023-04-26T11:31:13.934Z,1.44
2023-04-26T11:32:13.610Z,1.84
2023-04-26T11:33:13.615Z,1.31
2023-04-26T11:34:13.611Z,1.81
2023-04-26T11:35:13.614Z,1.59
2023-04-26T11:36:13.601Z,1.76
2023-04-26T11:37:13.633Z,1.79
2023-04-26T11:38:13.647Z,1.67
2023-04-26T11:39:14.322Z,2.06
2023-04-26T11:40:13.784Z,1.82
2023-04-26T11:41:13.792Z,1.75
2023-04-26T11:42:13.789Z,2.49
2023-04-26T11:43:13.839Z,2.84
2023-04-26T11:44:13.849Z,1.56
2023-04-26T11:45:13.858Z,1.46
2023-04-26T11:46:13.934Z,2.12
2023-04-26T11:47:14.006Z,1.87
2023-04-26T11:48:14.067Z,2.01
2023-04-26T11:49:14.047Z,1.78
2023-04-26T11:50:14.069Z,1.49
2023-04-26T11:51:14.047Z,1.80
2023-04-26T11:52:14.047Z,1.13
2023-04-26T11:53:14.042Z,1.93
2023-04-26T11:54:14.079Z,1.91
2023-04-26T11:55:14.081Z,1.42
2023-04-26T11:56:14.104Z,1.29
2023-04-26T11:57:17.049Z,1.42
2023-04-26T11:58:14.088Z,1.67
2023-04-26T11:59:14.083Z,2.15
2023-04-26T12:00:14.096Z,1.82
2023-04-26T12:01:14.102Z,1.58
2023-04-26T12:02:14.238Z,1.36
2023-04-26T12:03:14.297Z,1.82
2023-04-26T12:04:14.179Z,1.76
2023-04-26T12:05:14.184Z,1.81
2023-04-26T12:06:14.053Z,2.00
2023-04-26T12:07:14.012Z,1.75
2023-04-26T12:08:14.035Z,1.53
2023-04-26T12:09:14.050Z,1.71
2023-04-26T12:10:14.009Z,1.57
2023-04-26T12:11:14.000Z,1.56
2023-04-26T12:12:14.052Z,2.12
2023-04-26T12:13:14.005Z,1.65
2023-04-26T12:14:14.005Z,1.05
2023-04-26T12:15:15.625Z,1.44
2023-04-26T12:16:24.983Z,1.75
2023-04-26T12:17:15.028Z,1.81
2023-04-26T12:18:14.206Z,1.62
2023-04-26T12:19:13.949Z,1.50
2023-04-26T12:20:14.004Z,1.30
2023-04-26T12:21:13.966Z,1.69
2023-04-26T12:22:13.969Z,1.95
2023-04-26T12:23:13.915Z,1.64
2023-04-26T12:24:13.912Z,1.57
2023-04-26T12:25:13.930Z,1.58
2023-04-26T12:26:13.926Z,1.35
2023-04-26T12:27:13.883Z,1.19
2023-04-26T12:28:14.199Z,1.34
2023-04-26T12:29:13.882Z,1.39
2023-04-26T12:30:13.888Z,1.50
2023-04-26T12:31:13.988Z,1.44
2023-04-26T12:32:13.973Z,1.34
2023-04-26T12:33:17.602Z,2.80
2023-04-26T12:34:14.014Z,1.83
2023-04-26T12:35:13.980Z,1.82
2023-04-26T12:36:13.980Z,1.45
2023-04-26T12:37:13.941Z,1.69
2023-04-26T12:38:14.296Z,1.50
2023-04-26T12:39:13.967Z,1.94
2023-04-26T12:40:13.926Z,1.58
2023-04-26T12:41:13.944Z,1.56
2023-04-26T12:42:13.963Z,1.36
2023-04-26T12:43:13.912Z,1.23
2023-04-26T12:44:14.000Z,1.83
2023-04-26T12:45:13.915Z,1.69
2023-04-26T12:46:13.967Z,1.98
2023-04-26T12:47:13.912Z,1.63
2023-04-26T12:48:14.128Z,1.49
2023-04-26T12:49:13.895Z,1.65
2023-04-26T12:50:14.186Z,1.54
2023-04-26T12:51:13.876Z,1.67
2023-04-26T12:52:13.870Z,1.53
2023-04-26T12:53:13.853Z,1.28
2023-04-26T12:54:13.869Z,1.99
2023-04-26T12:55:14.426Z,2.00
2023-04-26T12:56:13.873Z,1.69
2023-04-26T12:57:13.826Z,1.67
2023-04-26T12:58:14.010Z,1.45
2023-04-26T12:59:13.814Z,1.91
2023-04-26T13:00:13.804Z,1.40
2023-04-26T13:01:13.872Z,1.75
2023-04-26T13:02:13.881Z,1.36
2023-04-26T13:03:13.950Z,1.43
2023-04-26T13:04:13.970Z,1.09
2023-04-26T13:05:13.771Z,2.07
2023-04-26T13:06:13.829Z,1.88
2023-04-26T13:07:13.800Z,1.49
2023-04-26T13:08:13.944Z,1.06
2023-04-26T13:09:13.803Z,1.21
2023-04-26T13:10:13.893Z,1.30
2023-04-26T13:11:13.826Z,1.27
2023-04-26T13:12:13.828Z,1.39
2023-04-26T13:13:13.840Z,1.41
2023-04-26T13:14:13.858Z,1.22
2023-04-26T13:15:15.150Z,1.26
2023-04-26T13:16:13.977Z,1.30
2023-04-26T13:17:13.902Z,1.44
2023-04-26T13:18:14.101Z,1.59
2023-04-26T13:19:13.949Z,1.27